createdAt,value
2022-12-22T00:01:30.578Z,17.75
2022-12-22T00:04:17.972Z,17.92
2022-12-22T00:07:03.369Z,16.48
2022-12-22T00:09:48.667Z,16.77
2022-12-22T00:12:37.681Z,17.35
2022-12-22T00:15:24.330Z,18.02
2022-12-22T00:18:10.157Z,15.85
2022-12-22T00:20:55.916Z,15.25
2022-12-22T00:23:41.280Z,15.90
2022-12-22T00:26:27.294Z,14.77
2022-12-22T00:29:13.054Z,15.40
2022-12-22T00:31:59.748Z,15.10
2022-12-22T00:34:46.423Z,14.65
2022-12-22T00:37:32.878Z,15.73
2022-12-22T00:40:19.933Z,15.70
2022-12-22T00:43:05.916Z,16.38
2022-12-22T00:45:51.462Z,15.30
2022-12-22T00:48:45.816Z,18.30
2022-12-22T00:51:32.159Z,20.63
2022-12-22T00:54:17.652Z,22.55
2022-12-22T00:57:03.333Z,19.52
2022-12-22T00:59:49.448Z,16.77
2022-12-22T01:02:36.303Z,14.85
2022-12-22T01:05:21.976Z,14.48
2022-12-22T01:08:07.960Z,13.75
2022-12-22T01:10:53.484Z,14.57
2022-12-22T01:13:39.345Z,14.43
2022-12-22T01:16:25.341Z,15.00
2022-12-22T01:19:11.884Z,14.57
2022-12-22T01:21:57.457Z,13.68
2022-12-22T01:24:48.130Z,11.18
2022-12-22T01:27:38.252Z,14.20
2022-12-22T01:30:24.436Z,14.75
2022-12-22T01:33:10.069Z,14.00
2022-12-22T01:35:55.909Z,12.63
2022-12-22T01:38:41.743Z,13.10
2022-12-22T01:41:33.266Z,14.05
2022-12-22T01:44:19.025Z,14.13
2022-12-22T01:47:05.768Z,13.13
2022-12-22T01:50:04.336Z,13.43
2022-12-22T01:52:53.556Z,14.80
2022-12-22T01:55:43.684Z,12.27
2022-12-22T01:58:42.588Z,13.98
2022-12-22T02:01:28.272Z,12.13
2022-12-22T02:04:14.341Z,12.75
2022-12-22T02:07:01.541Z,12.65
2022-12-22T02:10:02.534Z,11.82
2022-12-22T02:13:09.591Z,12.40
2022-12-22T02:16:05.775Z,12.80
2022-12-22T02:19:03.880Z,15.52
2022-12-22T02:22:01.973Z,14.55
2022-12-22T02:24:47.227Z,13.18
2022-12-22T02:27:34.200Z,13.63
2022-12-22T02:30:23.232Z,13.57
2022-12-22T02:33:10.164Z,12.65
2022-12-22T02:36:15.804Z,13.85
2022-12-22T02:39:10.482Z,12.80
2022-12-22T02:42:22.001Z,12.85
2022-12-22T02:45:32.331Z,16.17
2022-12-22T02:48:20.589Z,12.73
2022-12-22T02:51:13.348Z,12.82
2022-12-22T02:53:59.845Z,12.07
2022-12-22T02:56:45.825Z,10.50
2022-12-22T02:59:31.826Z,11.93
2022-12-22T03:02:17.340Z,11.10
2022-12-22T03:05:03.387Z,12.32
2022-12-22T03:07:48.817Z,12.32
2022-12-22T03:10:34.240Z,13.23
2022-12-22T03:13:19.855Z,11.25
2022-12-22T03:16:06.358Z,11.77
2022-12-22T03:18:52.054Z,12.48
2022-12-22T03:21:37.852Z,13.20
2022-12-22T03:24:23.842Z,12.88
2022-12-22T03:26:50.975Z,12.18
2022-12-22T03:29:17.890Z,13.80
2022-12-22T03:31:44.961Z,13.10
2022-12-22T03:34:11.930Z,14.60
2022-12-22T03:36:38.884Z,13.93
2022-12-22T03:39:05.956Z,13.75
2022-12-22T03:41:51.927Z,19.15
2022-12-22T03:44:37.881Z,30.25
2022-12-22T03:47:05.040Z,16.45
2022-12-22T03:49:32.326Z,18.83
2022-12-22T03:51:59.430Z,26.90
2022-12-22T03:54:26.610Z,14.63
2022-12-22T03:56:54.631Z,14.95
2022-12-22T03:59:22.035Z,14.45
2022-12-22T04:01:51.828Z,13.75
2022-12-22T04:04:21.199Z,14.57
2022-12-22T04:06:48.492Z,14.50
2022-12-22T04:09:15.375Z,18.55
2022-12-22T04:12:01.089Z,18.92
2022-12-22T04:14:33.727Z,22.23
2022-12-22T04:17:03.045Z,15.07
2022-12-22T04:19:30.629Z,14.77
2022-12-22T04:21:58.026Z,17.88
2022-12-22T04:24:25.732Z,18.63
2022-12-22T04:26:53.247Z,19.55
2022-12-22T04:29:20.430Z,16.85
2022-12-22T04:31:47.686Z,15.30
2022-12-22T04:34:14.807Z,14.20
2022-12-22T04:36:43.724Z,14.88
2022-12-22T04:39:10.615Z,18.67
2022-12-22T04:41:37.471Z,17.60
2022-12-22T04:44:04.354Z,15.90
2022-12-22T04:46:31.423Z,15.02
2022-12-22T04:49:00.464Z,15.10
2022-12-22T04:51:28.562Z,14.63
2022-12-22T04:53:55.627Z,16.38
2022-12-22T04:56:22.655Z,16.23
2022-12-22T04:58:49.684Z,16.35
2022-12-22T05:01:18.892Z,16.67
2022-12-22T05:03:54.433Z,15.80
2022-12-22T05:06:21.493Z,14.90
2022-12-22T05:08:48.499Z,16.90
2022-12-22T05:11:15.654Z,17.88
2022-12-22T05:13:42.593Z,20.65
2022-12-22T05:16:15.852Z,21.83
2022-12-22T05:18:46.649Z,19.90
2022-12-22T05:21:21.836Z,18.83
2022-12-22T05:23:50.511Z,20.35
2022-12-22T05:26:19.022Z,19.60
2022-12-22T05:28:49.155Z,20.75
2022-12-22T05:31:25.313Z,28.77
2022-12-22T05:33:52.830Z,34.08
2022-12-22T05:36:20.085Z,34.15
2022-12-22T05:38:47.191Z,32.47
2022-12-22T05:41:14.911Z,31.42
2022-12-22T05:43:42.104Z,60.03
2022-12-22T05:46:13.896Z,35.95
2022-12-22T05:48:41.323Z,33.70
2022-12-22T05:51:09.794Z,40.10
2022-12-22T05:53:38.722Z,38.30
2022-12-22T05:56:06.754Z,45.50
2022-12-22T05:58:35.268Z,35.53
2022-12-22T06:01:02.278Z,39.85
2022-12-22T06:03:30.747Z,37.63
2022-12-22T06:05:59.522Z,36.90
2022-12-22T06:08:28.171Z,34.28
2022-12-22T06:10:57.621Z,31.23
2022-12-22T06:13:25.936Z,34.38
2022-12-22T06:15:53.974Z,33.05
2022-12-22T06:18:21.861Z,31.48
2022-12-22T06:20:52.195Z,46.03
2022-12-22T06:23:19.488Z,48.80
2022-12-22T06:26:01.324Z,47.50
2022-12-22T06:28:29.394Z,44.85
2022-12-22T06:30:56.826Z,39.70
2022-12-22T06:33:24.443Z,47.05
2022-12-22T06:35:57.887Z,44.20
2022-12-22T06:38:28.095Z,34.88
2022-12-22T06:40:55.405Z,32.63
2022-12-22T06:43:23.024Z,33.03
2022-12-22T06:45:50.428Z,38.60
2022-12-22T06:48:18.026Z,44.72
2022-12-22T06:50:45.933Z,41.05
2022-12-22T06:53:14.751Z,41.83
2022-12-22T06:55:42.054Z,44.70
2022-12-22T06:58:10.036Z,32.25
2022-12-22T07:00:37.015Z,31.98
2022-12-22T07:03:04.640Z,33.58
2022-12-22T07:05:32.388Z,32.22
2022-12-22T07:08:08.081Z,36.60
2022-12-22T07:10:54.620Z,31.58
2022-12-22T07:13:21.879Z,31.20
2022-12-22T07:15:55.605Z,27.55
2022-12-22T07:18:27.106Z,25.55
2022-12-22T07:20:54.919Z,55.15
2022-12-22T07:23:22.015Z,26.90
2022-12-22T07:25:49.302Z,21.35
2022-12-22T07:28:20.679Z,34.97
2022-12-22T07:30:49.946Z,26.92
2022-12-22T07:33:17.951Z,23.40
2022-12-22T07:35:45.932Z,21.02
2022-12-22T07:38:13.861Z,20.40
2022-12-22T07:40:42.397Z,21.52
2022-12-22T07:43:10.455Z,20.73
2022-12-22T07:45:38.572Z,22.92
2022-12-22T07:48:26.524Z,22.90
2022-12-22T07:50:55.038Z,23.52
2022-12-22T07:53:22.562Z,19.83
2022-12-22T07:55:49.726Z,21.48
2022-12-22T07:58:17.826Z,22.88
2022-12-22T08:00:45.149Z,21.33
2022-12-22T08:03:12.323Z,22.80
2022-12-22T08:05:39.631Z,23.00
2022-12-22T08:08:07.728Z,24.10
2022-12-22T08:10:37.704Z,22.15
2022-12-22T08:13:05.052Z,26.35
2022-12-22T08:15:34.095Z,24.45
2022-12-22T08:18:01.903Z,23.95
2022-12-22T08:20:29.085Z,23.58
2022-12-22T08:22:57.249Z,27.10
2022-12-22T08:25:24.507Z,29.25
2022-12-22T08:27:55.490Z,26.08
2022-12-22T08:30:25.524Z,25.05
2022-12-22T08:32:53.581Z,26.95
2022-12-22T08:35:21.032Z,21.45
2022-12-22T08:37:49.902Z,23.38
2022-12-22T08:40:21.905Z,24.77
2022-12-22T08:42:51.279Z,29.98
2022-12-22T08:45:18.578Z,43.00
2022-12-22T08:47:45.573Z,24.45
2022-12-22T08:50:14.355Z,26.00
2022-12-22T08:52:41.725Z,24.50
2022-12-22T08:55:10.040Z,28.58
2022-12-22T08:57:37.775Z,22.88
2022-12-22T09:00:06.917Z,22.33
2022-12-22T09:02:34.485Z,23.17
2022-12-22T09:09:11.469Z,22.05
2022-12-22T09:11:40.125Z,23.20
2022-12-22T09:14:08.624Z,25.23
2022-12-22T09:16:36.768Z,25.95
2022-12-22T09:19:04.779Z,25.67
2022-12-22T09:21:31.872Z,23.13
2022-12-22T09:23:59.534Z,28.95
2022-12-22T09:26:28.761Z,28.70
2022-12-22T09:28:56.054Z,23.58
2022-12-22T09:31:24.696Z,26.85
2022-12-22T09:33:54.001Z,27.05
2022-12-22T09:36:24.916Z,22.33
2022-12-22T09:38:52.064Z,28.33
2022-12-22T09:41:34.820Z,27.88
2022-12-22T09:44:06.878Z,27.38
2022-12-22T09:46:37.295Z,26.10
2022-12-22T09:49:07.259Z,27.27
2022-12-22T09:51:40.563Z,27.80
2022-12-22T09:54:11.520Z,31.63
2022-12-22T09:56:38.600Z,31.00
2022-12-22T09:59:27.637Z,24.83
2022-12-22T10:02:11.090Z,25.50
2022-12-22T10:05:07.118Z,21.88
2022-12-22T10:07:36.020Z,19.90
2022-12-22T10:10:14.367Z,16.10
2022-12-22T10:12:42.625Z,18.38
2022-12-22T10:15:20.036Z,18.83
2022-12-22T10:17:51.817Z,17.35
2022-12-22T10:20:21.678Z,18.23
2022-12-22T10:22:55.843Z,20.20
2022-12-22T10:26:00.409Z,23.40
2022-12-22T10:28:33.646Z,27.48
2022-12-22T10:31:15.100Z,28.98
2022-12-22T10:33:47.052Z,27.15
2022-12-22T10:36:37.233Z,28.90
2022-12-22T10:39:09.921Z,25.55
2022-12-22T10:41:42.272Z,24.48
2022-12-22T10:44:21.523Z,23.77
2022-12-22T10:46:54.543Z,23.52
2022-12-22T10:52:13.778Z,20.85
2022-12-22T10:54:44.791Z,23.80
2022-12-22T10:57:14.978Z,25.38
2022-12-22T10:59:54.172Z,25.90
2022-12-22T11:02:21.397Z,24.20
2022-12-22T11:04:49.829Z,41.97
2022-12-22T11:07:17.504Z,49.63
2022-12-22T11:09:44.526Z,17.90
2022-12-22T11:12:16.998Z,61.13
2022-12-22T11:15:20.197Z,11.65
2022-12-22T11:18:12.610Z,10.02
2022-12-22T11:21:07.463Z,25.25
2022-12-22T11:23:56.225Z,8.35
2022-12-22T11:26:40.541Z,18.50
2022-12-22T11:29:30.646Z,25.17
2022-12-22T11:32:15.861Z,16.45
2022-12-22T11:35:14.220Z,15.38
2022-12-22T11:38:00.955Z,13.27
2022-12-22T11:40:47.215Z,13.40
2022-12-22T11:43:35.356Z,16.88
2022-12-22T11:46:14.342Z,13.82
2022-12-22T11:48:53.525Z,14.98
2022-12-22T11:51:42.050Z,14.88
2022-12-22T11:54:31.960Z,26.10
2022-12-22T11:57:11.373Z,35.42
2022-12-22T11:59:47.391Z,24.15
2022-12-22T12:02:56.232Z,14.73
2022-12-22T12:05:34.569Z,11.43
2022-12-22T12:08:29.652Z,18.90
2022-12-22T12:11:18.699Z,10.90
2022-12-22T12:14:36.113Z,16.67
2022-12-22T12:17:15.172Z,10.60
2022-12-22T12:20:18.847Z,10.13
2022-12-22T12:23:17.426Z,14.80
2022-12-22T12:25:57.021Z,18.92
2022-12-22T12:28:23.858Z,13.43
2022-12-22T12:30:54.986Z,17.15
2022-12-22T12:33:35.580Z,19.33
2022-12-22T12:36:24.710Z,22.57
2022-12-22T12:39:08.768Z,27.13
2022-12-22T12:41:56.929Z,20.92
2022-12-22T12:44:28.537Z,18.65
2022-12-22T12:47:28.407Z,15.93
2022-12-22T12:50:34.027Z,17.10
2022-12-22T12:53:05.627Z,18.58
2022-12-22T12:55:52.016Z,13.68
2022-12-22T12:58:40.048Z,19.80
2022-12-22T13:01:13.284Z,11.80
2022-12-22T13:04:03.279Z,10.07
2022-12-22T13:06:49.128Z,12.45
2022-12-22T13:12:40.287Z,22.20
2022-12-22T13:17:53.852Z,21.00
2022-12-22T13:20:35.500Z,31.45
2022-12-22T13:23:10.531Z,17.63
2022-12-22T13:25:42.601Z,13.85
2022-12-22T13:28:16.797Z,14.23
2022-12-22T13:30:49.450Z,14.07
2022-12-22T13:33:24.487Z,15.40
2022-12-22T13:35:58.239Z,16.02
2022-12-22T13:38:37.432Z,16.20
2022-12-22T13:41:22.952Z,15.77
2022-12-22T13:43:57.397Z,19.42
2022-12-22T13:46:27.162Z,16.60
2022-12-22T13:48:57.506Z,15.80
2022-12-22T13:51:28.906Z,16.70
2022-12-22T13:56:42.685Z,16.13
2022-12-22T13:59:39.611Z,16.50
2022-12-22T14:02:09.401Z,20.75
2022-12-22T14:04:38.030Z,27.38
2022-12-22T14:07:17.322Z,31.08
2022-12-22T14:09:56.558Z,53.17
2022-12-22T14:12:30.366Z,64.38
2022-12-22T14:15:01.539Z,62.55
2022-12-22T14:17:30.935Z,73.60
2022-12-22T14:20:00.873Z,71.72
2022-12-22T14:22:33.125Z,31.90
2022-12-22T14:25:09.546Z,40.65
2022-12-22T14:27:49.435Z,25.13
2022-12-22T14:30:22.357Z,34.55
2022-12-22T14:32:55.480Z,27.55
2022-12-22T14:35:26.868Z,39.97
2022-12-22T14:38:16.987Z,40.38
2022-12-22T14:40:45.311Z,47.53
2022-12-22T14:43:18.263Z,38.75
2022-12-22T14:45:47.279Z,36.85
2022-12-22T14:48:39.997Z,38.17
2022-12-22T14:51:07.680Z,44.70
2022-12-22T14:53:37.290Z,41.47
2022-12-22T14:56:04.286Z,56.15
2022-12-22T14:58:35.421Z,65.43
2022-12-22T15:01:17.558Z,64.68
2022-12-22T15:03:55.128Z,80.22
2022-12-22T15:06:28.218Z,86.57
2022-12-22T15:09:07.276Z,77.90
2022-12-22T15:11:36.183Z,65.35
2022-12-22T15:14:04.030Z,58.25
2022-12-22T15:16:31.650Z,54.85
2022-12-22T15:18:58.597Z,55.05
2022-12-22T15:21:28.308Z,56.58
2022-12-22T15:23:55.270Z,87.82
2022-12-22T15:26:22.159Z,87.25
2022-12-22T15:28:49.089Z,64.20
2022-12-22T15:31:17.379Z,59.30
2022-12-22T15:33:45.795Z,77.97
2022-12-22T15:36:14.824Z,66.68
2022-12-22T15:38:52.148Z,43.97
2022-12-22T15:41:19.183Z,47.28
2022-12-22T15:44:01.535Z,43.45
2022-12-22T15:46:34.092Z,40.55
2022-12-22T15:49:01.137Z,47.47
2022-12-22T15:51:30.658Z,44.53
2022-12-22T15:54:12.131Z,71.25
2022-12-22T15:56:39.009Z,77.38
2022-12-22T15:59:06.153Z,80.60
2022-12-22T16:01:33.193Z,79.63
2022-12-22T16:04:00.453Z,72.63
2022-12-22T16:06:27.475Z,67.13
2022-12-22T16:08:54.712Z,83.18
2022-12-22T16:11:21.830Z,85.95
2022-12-22T16:13:50.501Z,79.95
2022-12-22T16:16:17.771Z,79.32
2022-12-22T16:18:44.856Z,84.10
2022-12-22T16:21:17.033Z,61.95
2022-12-22T16:23:46.864Z,63.45
2022-12-22T16:26:20.450Z,66.38
2022-12-22T16:28:48.140Z,66.20
2022-12-22T16:31:21.359Z,56.85
2022-12-22T16:33:48.428Z,59.38
2022-12-22T16:36:15.898Z,60.45
2022-12-22T16:38:45.842Z,57.75
2022-12-22T16:41:24.355Z,65.53
2022-12-22T16:46:39.289Z,74.20
2022-12-22T16:49:09.253Z,89.57
2022-12-22T16:51:40.319Z,88.80
2022-12-22T16:54:07.332Z,87.97
2022-12-22T16:56:35.019Z,91.05
2022-12-22T16:59:04.664Z,86.65
2022-12-22T17:01:35.175Z,58.13
2022-12-22T17:04:08.045Z,76.65
2022-12-22T17:06:35.194Z,64.32
2022-12-22T17:09:04.705Z,70.63
2022-12-22T17:11:34.681Z,70.72
2022-12-22T17:14:38.708Z,65.35
2022-12-22T17:17:05.918Z,50.92
2022-12-22T17:19:32.892Z,42.30
2022-12-22T17:22:03.763Z,34.60
2022-12-22T17:24:30.645Z,32.72
2022-12-22T17:27:03.438Z,30.75
2022-12-22T17:29:30.509Z,32.97
2022-12-22T17:32:04.122Z,33.22
2022-12-22T17:34:42.785Z,38.22
2022-12-22T17:37:22.349Z,66.80
2022-12-22T17:39:59.150Z,69.03
2022-12-22T17:42:26.782Z,68.57
2022-12-22T17:44:53.945Z,70.60
2022-12-22T17:47:29.085Z,94.97
2022-12-22T17:49:58.735Z,87.80
2022-12-22T17:52:28.226Z,96.80
2022-12-22T17:54:55.323Z,79.68
2022-12-22T17:57:32.408Z,66.65
2022-12-22T17:59:59.498Z,66.47
2022-12-22T18:02:31.196Z,71.03
2022-12-22T18:04:58.924Z,64.07
2022-12-22T18:07:26.027Z,62.88
2022-12-22T18:09:59.087Z,52.28
2022-12-22T18:12:26.172Z,52.92
2022-12-22T18:14:53.165Z,52.50
2022-12-22T18:17:26.229Z,52.40
2022-12-22T18:19:55.958Z,54.00
2022-12-22T18:22:25.839Z,50.42
2022-12-22T18:24:54.602Z,37.15
2022-12-22T18:27:22.904Z,35.03
2022-12-22T18:29:49.867Z,30.45
2022-12-22T18:32:26.308Z,30.42
2022-12-22T18:34:54.361Z,28.92
2022-12-22T18:37:21.451Z,30.88
2022-12-22T18:39:48.315Z,35.35
2022-12-22T18:42:23.596Z,39.60
2022-12-22T18:44:58.189Z,46.50
2022-12-22T18:47:25.216Z,63.95
2022-12-22T18:49:52.343Z,79.45
2022-12-22T18:52:23.332Z,81.60
2022-12-22T18:54:51.096Z,92.93
2022-12-22T18:57:22.799Z,90.43
2022-12-22T18:59:49.813Z,87.95
2022-12-22T19:02:21.055Z,103.07
2022-12-22T19:04:55.222Z,112.70
2022-12-22T19:07:25.115Z,98.40
2022-12-22T19:09:52.345Z,94.22
2022-12-22T19:12:25.322Z,93.30
2022-12-22T19:14:57.399Z,91.20
2022-12-22T19:17:27.926Z,76.97
2022-12-22T19:19:55.655Z,63.20
2022-12-22T19:22:22.515Z,54.05
2022-12-22T19:24:49.371Z,50.75
2022-12-22T19:27:16.176Z,57.55
2022-12-22T19:29:43.069Z,55.97
2022-12-22T19:32:26.295Z,59.90
2022-12-22T19:34:53.256Z,59.78
2022-12-22T19:37:20.317Z,66.97
2022-12-22T19:39:47.585Z,95.97
2022-12-22T19:42:19.681Z,99.43
2022-12-22T19:44:47.249Z,93.80
2022-12-22T19:47:24.486Z,105.15
2022-12-22T19:49:51.320Z,102.80
2022-12-22T19:52:18.270Z,90.28
2022-12-22T19:54:45.196Z,93.38
2022-12-22T19:57:19.628Z,88.43
2022-12-22T19:59:49.813Z,88.18
2022-12-22T20:02:32.002Z,86.93
2022-12-22T20:05:00.869Z,78.18
2022-12-22T20:07:29.874Z,87.43
2022-12-22T20:09:57.115Z,71.28
2022-12-22T20:12:36.154Z,53.20
2022-12-22T20:15:13.585Z,57.53
2022-12-22T20:17:40.473Z,52.90
2022-12-22T20:20:13.365Z,54.35
2022-12-22T20:22:48.388Z,42.50
2022-12-22T20:25:26.753Z,39.65
2022-12-22T20:27:55.421Z,31.98
2022-12-22T20:30:28.903Z,41.60
2022-12-22T20:32:56.032Z,40.83
2022-12-22T20:35:24.292Z,43.75
2022-12-22T20:37:51.408Z,57.40
2022-12-22T20:40:26.366Z,72.50
2022-12-22T20:42:53.713Z,82.57
2022-12-22T20:45:23.910Z,89.90
2022-12-22T20:47:52.112Z,88.47
2022-12-22T20:50:37.044Z,83.10
2022-12-22T20:53:05.441Z,87.53
2022-12-22T20:55:32.487Z,85.53
2022-12-22T20:58:01.166Z,93.97
2022-12-22T21:00:29.145Z,94.22
2022-12-22T21:02:56.220Z,112.78
2022-12-22T21:05:23.237Z,116.88
2022-12-22T21:07:50.261Z,117.30
2022-12-22T21:10:26.497Z,115.35
2022-12-22T21:12:53.461Z,90.20
2022-12-22T21:15:28.265Z,70.07
2022-12-22T21:17:58.672Z,66.72
2022-12-22T21:20:28.403Z,53.33
2022-12-22T21:22:55.511Z,35.58
2022-12-22T21:25:28.655Z,26.10
2022-12-22T21:27:56.481Z,22.60
2022-12-22T21:30:28.119Z,24.13
2022-12-22T21:32:55.930Z,26.88
2022-12-22T21:35:31.269Z,28.73
2022-12-22T21:37:58.816Z,35.53
2022-12-22T21:40:28.233Z,32.67
2022-12-22T21:42:56.746Z,29.20
2022-12-22T21:45:26.745Z,23.42
2022-12-22T21:47:53.656Z,24.27
2022-12-22T21:50:33.076Z,23.90
2022-12-22T21:53:00.408Z,23.73
2022-12-22T21:55:32.769Z,24.38
2022-12-22T21:58:03.675Z,25.52
2022-12-22T22:00:45.990Z,30.98
2022-12-22T22:03:14.808Z,29.73
2022-12-22T22:05:42.349Z,38.53
2022-12-22T22:08:13.387Z,34.05
2022-12-22T22:13:09.037Z,34.80
2022-12-22T22:15:37.147Z,36.22
2022-12-22T22:18:07.247Z,27.73
2022-12-22T22:20:35.050Z,30.98
2022-12-22T22:23:02.206Z,28.98
2022-12-22T22:25:29.086Z,30.73
2022-12-22T22:28:00.014Z,31.48
2022-12-22T22:30:27.092Z,23.55
2022-12-22T22:32:55.834Z,23.90
2022-12-22T22:35:23.866Z,21.80
2022-12-22T22:37:58.117Z,22.25
2022-12-22T22:40:25.381Z,22.40
2022-12-22T22:42:57.313Z,22.60
2022-12-22T22:45:27.841Z,22.80
2022-12-22T22:47:55.908Z,29.10
2022-12-22T22:50:23.045Z,23.80
2022-12-22T22:52:50.341Z,24.23
2022-12-22T22:55:17.345Z,30.70
2022-12-22T22:57:44.220Z,40.63
2022-12-22T23:00:13.792Z,34.85
2022-12-22T23:02:41.044Z,25.38
2022-12-22T23:05:09.105Z,22.10
2022-12-22T23:07:36.197Z,22.30
2022-12-22T23:10:05.397Z,25.35
2022-12-22T23:12:32.638Z,26.40
2022-12-22T23:15:02.387Z,29.75
2022-12-22T23:17:29.693Z,45.47
2022-12-22T23:19:56.680Z,49.65
2022-12-22T23:22:28.471Z,28.80
2022-12-22T23:24:55.338Z,28.55
2022-12-22T23:27:25.187Z,27.65
2022-12-22T23:29:52.036Z,31.65
2022-12-22T23:32:25.776Z,35.40
2022-12-22T23:34:52.739Z,31.30
2022-12-22T23:37:19.996Z,32.53
2022-12-22T23:39:47.110Z,34.42
2022-12-22T23:42:13.885Z,32.28
2022-12-22T23:44:43.952Z,31.90
2022-12-22T23:47:10.860Z,31.23
2022-12-22T23:49:37.711Z,36.30
2022-12-22T23:52:04.711Z,33.20
2022-12-22T23:54:31.623Z,33.78
2022-12-22T23:56:58.461Z,32.45
2022-12-22T23:59:26.259Z,30.73
